Dolphin, Virginia
Current Conditions -  °F | °C
As of 11:35 AM on Sunday 21 Dec 2014 (Local Time) from KLVL Reporting Station
Overcast Overcast  
Wind Chill: 40°   Ceiling: 6500
Heat Index: 40°   Visibility: 10mi
Dew Point: 29°   Wind: 3mph
Humidity: 66%   Direction: 20°NNE
Pressure: 30.33"   Gusts: NA
Location:  36.85°N, 77.81°W
Report Text: KLVL 211635Z AUTO 02003KT 10SM OVC065 05/M01 A3033 RMK AO1 T00451014
Loading
Personal Weather Stations






























Interactive Weather Map New forecast layout! Learn more

10-Day Weather Forecast

Advertisements
Track Severe Weather on mobile